Time;durP1;ratioP1;P1;durP2;ratioP2;P2;SDS_P1;SDS_P2;PMS_P1;PMS_P2;Temp;Humidity;BMP_temperature;BMP_pressure;BME280_temperature;BME280_humidity;BME280_pressure;Samples;Min_cycle;Max_cycle;Signal;HPM_P1;HPM_P2
2021/11/23 00:00:43;;;;;;;9.77;3.92;;;;;;;;;;5004228;28;20042;-56
2021/11/23 00:03:10;;;;;;;10.70;3.92;;;;;;;;;;5005958;28;20041;-54
2021/11/23 00:05:36;;;;;;;9.93;4.22;;;;;;;;;;4985395;28;20093;-56
2021/11/23 00:08:03;;;;;;;9.23;3.63;;;;;;;;;;4987522;28;20062;-57
2021/11/23 00:10:30;;;;;;;8.65;3.65;;;;;;;;;;4999719;28;20045;-57
2021/11/23 00:12:58;;;;;;;8.82;4.03;;;;;;;;;;5005358;28;20046;-56
2021/11/23 00:15:24;;;;;;;14.33;3.60;;;;;;;;;;5001897;28;20056;-52
2021/11/23 00:17:52;;;;;;;19.23;5.97;;;;;;;;;;5006176;28;20038;-56
2021/11/23 00:20:19;;;;;;;13.32;5.75;;;;;;;;;;4991045;28;20043;-52
2021/11/23 00:22:45;;;;;;;18.88;6.95;;;;;;;;;;4987303;28;20034;-55
2021/11/23 00:25:12;;;;;;;17.05;6.45;;;;;;;;;;4984233;28;20050;-55
2021/11/23 00:27:38;;;;;;;13.73;4.80;;;;;;;;;;5002656;28;20127;-49
2021/11/23 00:30:08;;;;;;;9.90;4.40;;;;;;;;;;4982084;28;20053;-57
2021/11/23 00:32:34;;;;;;;12.15;3.95;;;;;;;;;;4984096;28;20205;-54
2021/11/23 00:35:01;;;;;;;13.60;4.30;;;;;;;;;;4998661;28;20053;-53
2021/11/23 00:37:27;;;;;;;9.30;4.00;;;;;;;;;;4985704;28;20057;-51
2021/11/23 00:39:57;;;;;;;11.02;4.10;;;;;;;;;;5001427;28;20056;-54
2021/11/23 00:42:24;;;;;;;10.65;4.07;;;;;;;;;;5021351;28;20038;-51
2021/11/23 00:44:51;;;;;;;8.88;3.42;;;;;;;;;;5003928;28;20053;-53
2021/11/23 00:47:18;;;;;;;13.20;4.40;;;;;;;;;;4984203;28;20058;-52
2021/11/23 00:49:45;;;;;;;8.57;3.33;;;;;;;;;;5001293;28;20078;-56
2021/11/23 00:52:12;;;;;;;15.20;4.07;;;;;;;;;;4982313;28;20052;-55
2021/11/23 00:54:38;;;;;;;9.82;3.95;;;;;;;;;;4986375;28;20038;-50
2021/11/23 00:57:04;;;;;;;9.05;3.47;;;;;;;;;;4991680;28;20034;-51
2021/11/23 00:59:34;;;;;;;13.85;4.13;;;;;;;;;;5002508;28;20039;-51
2021/11/23 01:02:00;;;;;;;8.43;3.55;;;;;;;;;;5000707;28;20049;-53
2021/11/23 01:04:28;;;;;;;9.60;4.53;;;;;;;;;;5000521;28;20042;-54
2021/11/23 01:06:55;;;;;;;8.75;3.30;;;;;;;;;;4989577;28;20057;-51
2021/11/23 01:09:23;;;;;;;19.35;3.78;;;;;;;;;;5003571;28;20052;-54
2021/11/23 01:11:49;;;;;;;9.70;3.73;;;;;;;;;;5001442;28;20119;-55
2021/11/23 01:14:16;;;;;;;8.07;3.15;;;;;;;;;;5004827;28;20045;-52
2021/11/23 01:16:47;;;;;;;9.98;3.95;;;;;;;;;;5001084;28;20138;-53
2021/11/23 01:19:15;;;;;;;11.05;3.40;;;;;;;;;;5004635;28;20240;-54
2021/11/23 01:21:43;;;;;;;9.60;3.30;;;;;;;;;;4999217;28;20248;-51
2021/11/23 01:24:11;;;;;;;10.33;3.50;;;;;;;;;;4984279;28;20038;-53
2021/11/23 01:26:38;;;;;;;8.15;3.78;;;;;;;;;;4984606;28;20349;-53
2021/11/23 01:29:05;;;;;;;8.00;3.63;;;;;;;;;;4984448;28;20057;-57
2021/11/23 01:31:32;;;;;;;8.77;3.93;;;;;;;;;;4987672;28;20042;-56
2021/11/23 01:33:58;;;;;;;9.57;3.45;;;;;;;;;;5003310;28;20048;-51
2021/11/23 01:36:25;;;;;;;9.45;3.70;;;;;;;;;;5003712;28;20033;-49
2021/11/23 01:38:53;;;;;;;9.30;3.53;;;;;;;;;;5000745;28;20131;-55
2021/11/23 01:41:20;;;;;;;9.95;2.83;;;;;;;;;;5022562;28;20034;-53
2021/11/23 01:43:46;;;;;;;8.07;3.00;;;;;;;;;;4989580;28;20038;-52
2021/11/23 01:46:13;;;;;;;10.13;3.15;;;;;;;;;;4985845;28;20045;-50
2021/11/23 01:48:40;;;;;;;9.27;3.58;;;;;;;;;;4991341;28;20115;-53
2021/11/23 01:51:06;;;;;;;6.97;3.03;;;;;;;;;;5004062;28;20106;-50
2021/11/23 01:53:33;;;;;;;8.07;3.25;;;;;;;;;;5018689;28;20034;-51
2021/11/23 01:56:01;;;;;;;8.30;3.17;;;;;;;;;;5004950;28;20037;-52
2021/11/23 01:58:30;;;;;;;12.25;3.22;;;;;;;;;;4995897;28;20055;-53
2021/11/23 02:00:56;;;;;;;10.40;3.65;;;;;;;;;;4982324;28;20543;-53
2021/11/23 02:03:23;;;;;;;8.70;3.30;;;;;;;;;;4981701;28;20070;-51
2021/11/23 02:05:49;;;;;;;9.18;3.25;;;;;;;;;;5021095;28;20041;-51
2021/11/23 02:08:17;;;;;;;7.40;2.97;;;;;;;;;;5000607;28;20161;-55
2021/11/23 02:10:44;;;;;;;10.40;3.40;;;;;;;;;;4982361;28;20058;-53
2021/11/23 02:13:13;;;;;;;8.20;2.97;;;;;;;;;;4997281;28;20283;-52
2021/11/23 02:15:39;;;;;;;6.95;3.05;;;;;;;;;;4981625;28;20042;-53
2021/11/23 02:18:13;;;;;;;9.30;3.05;;;;;;;;;;4985391;28;20046;-55
2021/11/23 02:20:41;;;;;;;8.05;3.15;;;;;;;;;;4981615;28;20053;-53
2021/11/23 02:23:08;;;;;;;10.23;3.20;;;;;;;;;;4985827;28;20062;-53
2021/11/23 02:25:34;;;;;;;8.43;3.05;;;;;;;;;;4996429;28;20546;-54
2021/11/23 02:28:01;;;;;;;11.20;3.10;;;;;;;;;;5004271;28;20097;-52
2021/11/23 02:30:27;;;;;;;8.07;3.13;;;;;;;;;;4999941;28;20038;-53
2021/11/23 02:32:54;;;;;;;7.20;2.80;;;;;;;;;;5017938;28;20045;-50
2021/11/23 02:35:21;;;;;;;9.60;2.65;;;;;;;;;;4998921;28;20120;-51
2021/11/23 02:37:51;;;;;;;10.80;2.90;;;;;;;;;;5004665;28;20044;-56
2021/11/23 02:40:19;;;;;;;11.13;3.00;;;;;;;;;;5000054;28;20040;-52
2021/11/23 02:42:48;;;;;;;6.93;2.58;;;;;;;;;;5003934;28;20034;-55
2021/11/23 02:45:17;;;;;;;6.78;2.70;;;;;;;;;;4987978;28;20030;-53
2021/11/23 02:47:44;;;;;;;7.05;2.80;;;;;;;;;;4986354;28;20049;-55
2021/11/23 02:50:12;;;;;;;6.75;2.47;;;;;;;;;;4987298;28;20050;-54
2021/11/23 02:52:39;;;;;;;7.07;2.90;;;;;;;;;;5007149;28;20074;-55
2021/11/23 02:55:07;;;;;;;7.28;2.80;;;;;;;;;;5023724;28;20050;-56
2021/11/23 02:57:35;;;;;;;6.07;2.58;;;;;;;;;;5007904;28;20030;-52
2021/11/23 03:00:04;;;;;;;6.57;2.35;;;;;;;;;;5006942;28;20088;-53
2021/11/23 03:02:31;;;;;;;8.48;3.00;;;;;;;;;;4995808;28;20046;-55
2021/11/23 03:04:57;;;;;;;5.28;2.28;;;;;;;;;;5002849;28;20115;-55
2021/11/23 03:07:25;;;;;;;6.95;2.72;;;;;;;;;;4967755;28;20053;-54
2021/11/23 03:09:51;;;;;;;6.07;2.50;;;;;;;;;;4967519;28;20101;-52
2021/11/23 03:12:20;;;;;;;7.22;2.72;;;;;;;;;;4991976;28;20042;-49
2021/11/23 03:14:47;;;;;;;7.30;2.35;;;;;;;;;;4995487;28;20142;-55
2021/11/23 03:17:14;;;;;;;6.15;2.47;;;;;;;;;;5008886;28;20042;-51
2021/11/23 03:19:41;;;;;;;9.55;2.30;;;;;;;;;;5024288;28;20049;-55
2021/11/23 03:22:09;;;;;;;10.15;3.25;;;;;;;;;;5018037;28;20041;-52
2021/11/23 03:24:36;;;;;;;6.32;3.00;;;;;;;;;;5021719;28;20030;-55
2021/11/23 03:27:02;;;;;;;6.40;2.33;;;;;;;;;;5002048;28;20065;-55
2021/11/23 03:29:31;;;;;;;5.78;2.33;;;;;;;;;;5004649;28;20026;-54
2021/11/23 03:31:57;;;;;;;5.35;2.40;;;;;;;;;;4987902;28;20038;-53
2021/11/23 03:34:24;;;;;;;6.50;2.20;;;;;;;;;;5000251;28;20119;-55
2021/11/23 03:36:51;;;;;;;6.68;2.30;;;;;;;;;;5000534;28;20048;-55
2021/11/23 03:39:19;;;;;;;5.47;2.20;;;;;;;;;;4985735;28;20116;-55
2021/11/23 03:41:45;;;;;;;9.73;2.40;;;;;;;;;;4985060;28;20066;-51
2021/11/23 03:44:12;;;;;;;6.13;2.50;;;;;;;;;;5001095;28;20054;-56
2021/11/23 03:46:40;;;;;;;5.70;2.30;;;;;;;;;;5005297;28;20127;-54
2021/11/23 03:49:07;;;;;;;6.10;2.47;;;;;;;;;;4987611;28;20058;-56
2021/11/23 03:51:34;;;;;;;11.52;2.75;;;;;;;;;;4986680;28;20432;-51
2021/11/23 03:54:01;;;;;;;5.65;2.53;;;;;;;;;;4986343;28;20056;-56
2021/11/23 03:56:27;;;;;;;6.25;2.45;;;;;;;;;;4967354;28;20042;-53
2021/11/23 03:58:54;;;;;;;7.57;2.40;;;;;;;;;;4978418;28;20046;-53
2021/11/23 04:01:21;;;;;;;8.93;2.60;;;;;;;;;;4983016;28;20113;-54
2021/11/23 04:03:48;;;;;;;5.53;2.20;;;;;;;;;;4998816;28;20065;-53
2021/11/23 04:06:15;;;;;;;7.43;2.37;;;;;;;;;;5005196;28;20041;-53
2021/11/23 04:08:42;;;;;;;6.60;2.30;;;;;;;;;;5003774;28;20060;-56
2021/11/23 04:11:08;;;;;;;7.22;2.47;;;;;;;;;;5005816;28;20057;-54
2021/11/23 04:13:35;;;;;;;7.13;2.40;;;;;;;;;;4999491;28;20038;-53
2021/11/23 04:16:01;;;;;;;6.93;2.45;;;;;;;;;;4988603;28;20078;-55
2021/11/23 04:18:31;;;;;;;5.55;2.20;;;;;;;;;;4984573;28;20048;-55
2021/11/23 04:20:59;;;;;;;6.35;2.33;;;;;;;;;;4987829;28;20103;-56
2021/11/23 04:23:25;;;;;;;6.00;2.47;;;;;;;;;;4985457;28;20049;-54
2021/11/23 04:25:52;;;;;;;6.43;2.28;;;;;;;;;;5001075;28;20050;-56
2021/11/23 04:28:20;;;;;;;6.80;2.30;;;;;;;;;;5006017;28;20041;-52
2021/11/23 04:30:47;;;;;;;6.10;2.17;;;;;;;;;;4983718;28;20038;-52
2021/11/23 04:33:14;;;;;;;8.48;2.50;;;;;;;;;;5006129;28;20287;-50
2021/11/23 04:35:41;;;;;;;4.95;2.28;;;;;;;;;;4987288;28;20046;-54
2021/11/23 04:38:09;;;;;;;6.88;2.47;;;;;;;;;;4984566;28;20046;-55
2021/11/23 04:40:36;;;;;;;6.93;2.40;;;;;;;;;;5009662;28;20037;-56
2021/11/23 04:43:02;;;;;;;6.05;2.30;;;;;;;;;;5003673;28;20136;-50
2021/11/23 04:45:29;;;;;;;8.68;2.70;;;;;;;;;;4999401;28;20042;-56
2021/11/23 04:47:56;;;;;;;7.00;2.25;;;;;;;;;;5005505;28;20041;-50
2021/11/23 04:50:23;;;;;;;8.27;2.50;;;;;;;;;;5001100;28;20057;-53
2021/11/23 04:52:52;;;;;;;4.47;2.13;;;;;;;;;;5006513;28;21675;-55
2021/11/23 04:55:21;;;;;;;8.98;2.53;;;;;;;;;;4997159;28;20034;-54
2021/11/23 04:57:48;;;;;;;7.20;2.60;;;;;;;;;;5004405;28;20037;-54
2021/11/23 05:00:15;;;;;;;6.03;2.30;;;;;;;;;;5000668;28;20050;-52
2021/11/23 05:02:42;;;;;;;6.15;2.38;;;;;;;;;;4995374;28;20046;-53
2021/11/23 05:05:10;;;;;;;5.07;2.28;;;;;;;;;;4983048;28;20042;-55
2021/11/23 05:07:36;;;;;;;8.43;2.20;;;;;;;;;;4981038;28;20054;-53
2021/11/23 05:10:04;;;;;;;9.90;2.63;;;;;;;;;;4966294;28;20064;-54
2021/11/23 05:12:32;;;;;;;8.70;2.45;;;;;;;;;;4987833;28;20057;-52
2021/11/23 05:14:58;;;;;;;9.27;2.40;;;;;;;;;;4986325;28;20057;-54
2021/11/23 05:17:25;;;;;;;9.23;2.65;;;;;;;;;;4977633;28;20070;-53
2021/11/23 05:19:52;;;;;;;7.28;2.60;;;;;;;;;;4982114;28;20059;-51
2021/11/23 05:22:18;;;;;;;7.53;2.47;;;;;;;;;;4977590;28;20047;-56
2021/11/23 05:24:45;;;;;;;5.82;2.13;;;;;;;;;;4981677;28;20038;-55
2021/11/23 05:27:11;;;;;;;6.72;2.50;;;;;;;;;;4981737;28;20035;-57
2021/11/23 05:29:39;;;;;;;8.10;2.17;;;;;;;;;;4974793;28;20046;-51
2021/11/23 05:32:06;;;;;;;7.28;2.50;;;;;;;;;;4987821;28;20038;-54
2021/11/23 05:34:33;;;;;;;6.25;2.30;;;;;;;;;;5022555;28;20074;-53
2021/11/23 05:36:59;;;;;;;6.60;2.15;;;;;;;;;;4997927;28;20034;-54
2021/11/23 05:39:26;;;;;;;7.85;2.72;;;;;;;;;;4986131;28;20057;-54
2021/11/23 05:41:53;;;;;;;6.13;2.20;;;;;;;;;;5002452;28;20065;-53
2021/11/23 05:44:19;;;;;;;8.13;2.10;;;;;;;;;;5024075;28;20045;-57
2021/11/23 05:46:50;;;;;;;7.22;2.70;;;;;;;;;;5021414;28;20048;-55
2021/11/23 05:49:17;;;;;;;5.05;2.30;;;;;;;;;;4982166;28;20454;-53
2021/11/23 05:51:44;;;;;;;7.95;2.50;;;;;;;;;;4966273;28;20054;-56
2021/11/23 05:54:10;;;;;;;6.57;2.67;;;;;;;;;;4980847;28;20070;-54
2021/11/23 05:56:37;;;;;;;7.30;2.70;;;;;;;;;;4983983;28;20060;-52
2021/11/23 05:59:03;;;;;;;6.15;2.47;;;;;;;;;;4984630;28;20054;-53
2021/11/23 06:01:30;;;;;;;7.00;2.38;;;;;;;;;;4965253;28;20026;-52
2021/11/23 06:03:58;;;;;;;5.72;2.65;;;;;;;;;;4989245;28;20038;-56
2021/11/23 06:06:25;;;;;;;14.67;5.03;;;;;;;;;;4997930;28;20058;-56
2021/11/23 06:08:54;;;;;;;9.95;3.75;;;;;;;;;;5006031;28;20070;-55
2021/11/23 06:11:20;;;;;;;6.97;3.05;;;;;;;;;;5011915;28;20072;-56
2021/11/23 06:13:47;;;;;;;9.18;2.95;;;;;;;;;;4989266;28;20131;-56
2021/11/23 06:16:15;;;;;;;7.30;2.65;;;;;;;;;;5012243;28;20054;-53
2021/11/23 06:18:42;;;;;;;6.13;2.63;;;;;;;;;;5001920;28;20046;-52
2021/11/23 06:21:10;;;;;;;10.13;2.53;;;;;;;;;;4993533;28;20064;-52
2021/11/23 06:23:36;;;;;;;6.23;2.43;;;;;;;;;;4992282;28;20058;-56
2021/11/23 06:26:03;;;;;;;7.95;2.60;;;;;;;;;;4995938;28;20100;-54
2021/11/23 06:28:31;;;;;;;8.50;2.90;;;;;;;;;;5006017;28;20148;-52
2021/11/23 06:30:58;;;;;;;4.37;1.90;;;;;;;;;;4996496;28;20042;-52
2021/11/23 06:33:24;;;;;;;11.70;3.17;;;;;;;;;;4999534;28;20344;-53
2021/11/23 06:35:51;;;;;;;9.27;3.00;;;;;;;;;;4991415;28;20046;-54
2021/11/23 06:38:19;;;;;;;11.77;3.28;;;;;;;;;;4996703;28;20065;-57
2021/11/23 06:40:45;;;;;;;11.70;3.97;;;;;;;;;;4991459;28;20073;-55
2021/11/23 06:43:12;;;;;;;9.65;3.17;;;;;;;;;;4997002;28;20112;-53
2021/11/23 06:45:40;;;;;;;7.47;2.55;;;;;;;;;;4991008;28;20042;-54
2021/11/23 06:48:08;;;;;;;10.07;2.92;;;;;;;;;;4996288;28;20041;-54
2021/11/23 06:50:35;;;;;;;8.50;2.63;;;;;;;;;;4989066;28;20061;-54
2021/11/23 06:53:01;;;;;;;7.28;2.95;;;;;;;;;;5008113;28;20065;-53
2021/11/23 06:55:30;;;;;;;8.48;2.92;;;;;;;;;;4989529;28;20057;-55
2021/11/23 06:57:57;;;;;;;8.32;2.78;;;;;;;;;;5006123;28;20061;-53
2021/11/23 07:00:24;;;;;;;8.53;3.20;;;;;;;;;;5006896;28;20045;-54
2021/11/23 07:02:50;;;;;;;9.60;3.47;;;;;;;;;;5022900;28;20041;-54
2021/11/23 07:05:17;;;;;;;7.68;3.40;;;;;;;;;;5020751;28;20048;-54
2021/11/23 07:07:43;;;;;;;11.70;4.03;;;;;;;;;;5024926;28;20076;-56
2021/11/23 07:10:11;;;;;;;9.32;3.00;;;;;;;;;;5002396;28;20041;-56
2021/11/23 07:12:39;;;;;;;12.35;3.67;;;;;;;;;;4996325;28;20128;-54
2021/11/23 07:15:06;;;;;;;10.67;2.87;;;;;;;;;;4984932;28;20046;-55
2021/11/23 07:17:32;;;;;;;6.72;3.15;;;;;;;;;;4999945;28;20127;-55
2021/11/23 07:19:59;;;;;;;10.93;3.25;;;;;;;;;;5021642;28;20063;-55
2021/11/23 07:22:26;;;;;;;7.07;2.72;;;;;;;;;;4973142;28;20034;-55
2021/11/23 07:24:52;;;;;;;6.80;2.17;;;;;;;;;;4986226;28;20042;-54
2021/11/23 07:27:19;;;;;;;4.40;1.92;;;;;;;;;;4981478;28;20050;-54
2021/11/23 07:29:47;;;;;;;6.70;2.13;;;;;;;;;;4987275;28;20128;-57
2021/11/23 07:32:14;;;;;;;8.55;2.42;;;;;;;;;;4986671;28;20120;-53
2021/11/23 07:34:40;;;;;;;10.68;2.83;;;;;;;;;;4984536;28;20128;-53
2021/11/23 07:37:07;;;;;;;8.00;2.90;;;;;;;;;;5008978;28;20045;-53
2021/11/23 07:39:35;;;;;;;8.48;3.30;;;;;;;;;;5018363;28;20129;-54
2021/11/23 07:42:04;;;;;;;9.55;3.55;;;;;;;;;;5008991;28;20038;-55
2021/11/23 07:44:30;;;;;;;;;;;;;;;;;;4982884;28;20116;-56
2021/11/23 07:46:58;;;;;;;7.63;3.13;;;;;;;;;;4980840;28;19921;-55
2021/11/23 07:49:25;;;;;;;9.67;3.17;;;;;;;;;;5002911;28;20132;-55
2021/11/23 07:51:51;;;;;;;13.43;6.13;;;;;;;;;;4999690;28;20065;-54
2021/11/23 07:54:18;;;;;;;8.02;3.47;;;;;;;;;;5006019;28;20054;-53
2021/11/23 07:56:44;;;;;;;9.40;3.50;;;;;;;;;;5006628;28;20045;-55
2021/11/23 07:59:12;;;;;;;6.78;2.50;;;;;;;;;;4998339;28;20038;-52
2021/11/23 08:01:39;;;;;;;8.57;3.07;;;;;;;;;;5003437;28;20034;-55
2021/11/23 08:04:07;;;;;;;11.07;4.03;;;;;;;;;;4975297;28;20062;-54
2021/11/23 08:06:33;;;;;;;8.30;3.63;;;;;;;;;;5020292;28;20049;-55
2021/11/23 08:09:00;;;;;;;8.50;3.40;;;;;;;;;;4987686;28;20115;-55
2021/11/23 08:11:26;;;;;;;8.82;3.70;;;;;;;;;;5001832;28;20049;-55
2021/11/23 08:13:53;;;;;;;7.32;3.35;;;;;;;;;;4991370;28;20042;-56
2021/11/23 08:16:23;;;;;;;7.55;3.03;;;;;;;;;;4986270;28;20031;-53
2021/11/23 08:18:50;;;;;;;7.28;2.97;;;;;;;;;;4992410;28;20030;-56
2021/11/23 08:21:18;;;;;;;7.88;2.92;;;;;;;;;;5023656;28;20061;-57
2021/11/23 08:23:46;;;;;;;8.15;3.15;;;;;;;;;;4994292;28;20129;-57
2021/11/23 08:26:12;;;;;;;8.37;3.60;;;;;;;;;;4985548;28;20074;-55
2021/11/23 08:28:41;;;;;;;9.70;3.67;;;;;;;;;;4988033;28;20049;-57
2021/11/23 08:31:08;;;;;;;13.80;4.15;;;;;;;;;;5007653;28;20048;-56
2021/11/23 08:33:34;;;;;;;10.77;4.47;;;;;;;;;;5014400;28;20053;-56
2021/11/23 08:36:01;;;;;;;12.80;4.72;;;;;;;;;;5002475;28;20062;-54
2021/11/23 08:38:29;;;;;;;10.55;4.05;;;;;;;;;;4989019;28;20046;-52
2021/11/23 08:40:56;;;;;;;9.30;3.40;;;;;;;;;;5003864;28;20115;-54
2021/11/23 08:43:22;;;;;;;6.95;3.33;;;;;;;;;;5006104;28;20050;-54
2021/11/23 08:45:49;;;;;;;7.93;3.15;;;;;;;;;;4984994;28;20038;-56
2021/11/23 08:48:16;;;;;;;7.55;3.30;;;;;;;;;;5001764;28;20081;-53
2021/11/23 08:50:43;;;;;;;11.50;3.38;;;;;;;;;;4982351;28;20140;-55
2021/11/23 08:53:09;;;;;;;10.30;3.25;;;;;;;;;;4985260;28;20038;-55
2021/11/23 08:55:37;;;;;;;19.13;6.38;;;;;;;;;;4994915;28;20053;-56
2021/11/23 08:58:04;;;;;;;13.45;5.00;;;;;;;;;;5006094;28;20053;-55
2021/11/23 09:00:31;;;;;;;12.32;4.75;;;;;;;;;;4991207;28;20049;-54
2021/11/23 09:02:59;;;;;;;10.85;3.78;;;;;;;;;;4985740;28;20049;-56
2021/11/23 09:05:26;;;;;;;7.68;2.95;;;;;;;;;;4989678;28;20049;-54
2021/11/23 09:07:53;;;;;;;6.85;2.50;;;;;;;;;;5008408;28;20049;-56
2021/11/23 09:10:22;;;;;;;10.15;3.10;;;;;;;;;;4995488;28;20034;-57
2021/11/23 09:12:51;;;;;;;8.23;2.60;;;;;;;;;;5013425;28;20069;-55
2021/11/23 09:15:18;;;;;;;10.30;3.00;;;;;;;;;;4999558;28;20140;-55
2021/11/23 09:17:45;;;;;;;6.68;2.80;;;;;;;;;;5003843;28;20051;-56
2021/11/23 09:20:12;;;;;;;6.38;2.35;;;;;;;;;;5000572;28;20111;-53
2021/11/23 09:22:39;;;;;;;5.88;2.58;;;;;;;;;;4986166;28;20045;-54
2021/11/23 09:25:09;;;;;;;6.25;2.45;;;;;;;;;;4984250;28;20046;-56
2021/11/23 09:27:36;;;;;;;6.32;2.65;;;;;;;;;;4983431;28;20045;-56
2021/11/23 09:30:05;;;;;;;12.45;2.55;;;;;;;;;;4984180;28;20120;-56
2021/11/23 09:32:32;;;;;;;9.07;3.78;;;;;;;;;;4997773;28;20045;-54
2021/11/23 09:34:59;;;;;;;11.88;3.47;;;;;;;;;;5004738;28;20140;-56
2021/11/23 09:37:25;;;;;;;8.23;3.35;;;;;;;;;;5002060;28;20041;-54
2021/11/23 09:39:52;;;;;;;17.35;3.40;;;;;;;;;;5006281;28;20037;-55
2021/11/23 09:42:18;;;;;;;7.63;2.83;;;;;;;;;;4984253;28;20123;-54
2021/11/23 09:44:45;;;;;;;6.18;2.60;;;;;;;;;;5005590;28;20026;-54
2021/11/23 09:47:13;;;;;;;7.63;2.55;;;;;;;;;;5002154;28;20042;-56
2021/11/23 09:49:42;;;;;;;6.50;2.78;;;;;;;;;;5000572;28;20041;-56
2021/11/23 09:52:09;;;;;;;10.23;3.00;;;;;;;;;;4994138;28;20034;-57
2021/11/23 09:54:35;;;;;;;8.27;2.95;;;;;;;;;;4985557;28;20049;-57
2021/11/23 09:57:02;;;;;;;9.77;3.05;;;;;;;;;;4980563;28;20108;-57
2021/11/23 09:59:28;;;;;;;6.45;2.97;;;;;;;;;;4985221;28;20030;-56
2021/11/23 10:01:55;;;;;;;5.57;2.67;;;;;;;;;;4982048;28;20042;-56
2021/11/23 10:04:24;;;;;;;7.70;2.90;;;;;;;;;;4984212;28;20042;-56
2021/11/23 10:06:50;;;;;;;;;;;;;;;;;;4985564;28;20042;-53
2021/11/23 10:09:25;;;;;;;7.93;2.85;;;;;;;;;;4982075;28;19937;-53
2021/11/23 10:11:52;;;;;;;10.85;3.20;;;;;;;;;;4987396;28;20060;-57
2021/11/23 10:14:18;;;;;;;11.50;4.20;;;;;;;;;;4984256;28;20038;-52
2021/11/23 10:16:46;;;;;;;9.88;4.32;;;;;;;;;;4985726;28;20050;-54
2021/11/23 10:19:15;;;;;;;13.13;4.28;;;;;;;;;;4995402;28;20049;-52
2021/11/23 10:21:48;;;;;;;15.00;3.95;;;;;;;;;;5004074;28;20050;-56
2021/11/23 10:24:16;;;;;;;15.10;3.40;;;;;;;;;;4985445;28;20053;-54
2021/11/23 10:26:42;;;;;;;7.00;3.10;;;;;;;;;;4983578;28;20042;-57
2021/11/23 10:29:09;;;;;;;6.97;3.08;;;;;;;;;;4991800;28;20041;-56
2021/11/23 10:31:37;;;;;;;7.53;3.38;;;;;;;;;;5003858;28;20046;-56
2021/11/23 10:34:04;;;;;;;9.02;3.50;;;;;;;;;;4991510;28;20057;-54
2021/11/23 10:36:32;;;;;;;9.15;3.20;;;;;;;;;;5000546;28;20061;-56
2021/11/23 10:39:08;;;;;;;9.57;2.85;;;;;;;;;;4984887;28;20034;-55
2021/11/23 10:41:34;;;;;;;9.80;3.22;;;;;;;;;;4983259;28;20042;-53
2021/11/23 10:44:01;;;;;;;7.28;3.20;;;;;;;;;;4980906;28;20078;-54
2021/11/23 10:46:35;;;;;;;7.85;3.25;;;;;;;;;;4985447;28;20062;-57
2021/11/23 10:49:03;;;;;;;6.72;2.80;;;;;;;;;;4982178;28;20120;-55
2021/11/23 10:51:37;;;;;;;10.88;2.97;;;;;;;;;;4984347;28;20046;-54
2021/11/23 10:54:13;;;;;;;6.47;2.70;;;;;;;;;;4998614;28;20054;-57
2021/11/23 10:56:54;;;;;;;6.60;2.90;;;;;;;;;;4983603;28;20049;-57
2021/11/23 10:59:21;;;;;;;7.53;2.60;;;;;;;;;;4980572;28;20056;-58
2021/11/23 11:01:47;;;;;;;5.97;2.55;;;;;;;;;;4983787;28;20041;-56
2021/11/23 11:04:15;;;;;;;8.85;2.80;;;;;;;;;;4980618;28;20057;-55
2021/11/23 11:06:42;;;;;;;7.28;2.65;;;;;;;;;;5020379;28;20038;-55
2021/11/23 11:09:09;;;;;;;7.80;2.47;;;;;;;;;;5004969;28;20099;-54
2021/11/23 11:11:38;;;;;;;6.75;2.65;;;;;;;;;;4986664;28;20050;-55
2021/11/23 11:14:06;;;;;;;6.55;2.13;;;;;;;;;;5024382;28;20038;-55
2021/11/23 11:16:35;;;;;;;10.35;2.10;;;;;;;;;;5002750;28;20033;-56
2021/11/23 11:19:14;;;;;;;4.20;1.83;;;;;;;;;;5008915;28;20057;-55
2021/11/23 11:21:41;;;;;;;6.95;2.10;;;;;;;;;;4987268;28;20296;-56
2021/11/23 11:24:25;;;;;;;5.97;2.10;;;;;;;;;;5005094;28;20034;-56
2021/11/23 11:27:00;;;;;;;5.75;1.88;;;;;;;;;;4997950;28;20049;-55
2021/11/23 11:29:28;;;;;;;9.02;2.10;;;;;;;;;;5005599;28;20065;-56
2021/11/23 11:31:55;;;;;;;5.35;1.85;;;;;;;;;;5002372;28;20112;-56
2021/11/23 11:34:26;;;;;;;6.55;1.73;;;;;;;;;;5007075;28;20057;-56
2021/11/23 11:37:00;;;;;;;5.93;1.70;;;;;;;;;;5008319;28;20034;-55
2021/11/23 11:39:47;;;;;;;5.10;1.77;;;;;;;;;;4987491;28;20038;-56
2021/11/23 11:42:29;;;;;;;7.57;2.30;;;;;;;;;;5013674;28;20044;-53
2021/11/23 11:44:57;;;;;;;3.75;1.45;;;;;;;;;;5003959;28;20042;-54
2021/11/23 11:47:30;;;;;;;8.52;1.40;;;;;;;;;;5002071;28;20058;-54
2021/11/23 11:50:01;;;;;;;4.45;1.52;;;;;;;;;;5004892;28;20057;-56
2021/11/23 11:52:28;;;;;;;6.18;1.48;;;;;;;;;;4990813;28;20042;-55
2021/11/23 11:55:14;;;;;;;3.97;1.55;;;;;;;;;;4986646;28;20057;-57
2021/11/23 11:57:42;;;;;;;7.03;1.17;;;;;;;;;;4996375;28;20050;-53
2021/11/23 12:00:30;;;;;;;5.63;1.42;;;;;;;;;;5005798;28;20036;-56
2021/11/23 12:03:01;;;;;;;3.40;1.02;;;;;;;;;;5003566;28;20038;-55
2021/11/23 12:05:52;;;;;;;6.22;1.15;;;;;;;;;;4985510;28;20042;-57
2021/11/23 12:08:23;;;;;;;1.77;0.80;;;;;;;;;;4997382;28;20053;-56
2021/11/23 12:10:52;;;;;;;2.13;0.90;;;;;;;;;;5006162;28;20053;-56
2021/11/23 12:13:26;;;;;;;4.05;0.90;;;;;;;;;;4991089;28;20128;-56
2021/11/23 12:16:04;;;;;;;2.08;1.00;;;;;;;;;;4987449;28;20042;-54
2021/11/23 12:18:54;;;;;;;1.15;0.75;;;;;;;;;;4994651;28;20069;-57
2021/11/23 12:21:21;;;;;;;3.63;0.88;;;;;;;;;;5004983;28;20038;-56
2021/11/23 12:23:53;;;;;;;6.43;0.80;;;;;;;;;;5000918;28;20053;-55
2021/11/23 12:26:20;;;;;;;3.85;0.85;;;;;;;;;;5005776;28;20103;-56
2021/11/23 12:28:54;;;;;;;1.80;0.75;;;;;;;;;;5001949;28;20037;-55
2021/11/23 12:31:22;;;;;;;4.40;0.68;;;;;;;;;;5005349;28;20049;-55
2021/11/23 12:33:51;;;;;;;2.05;0.75;;;;;;;;;;5001205;28;20056;-57
2021/11/23 12:36:20;;;;;;;1.52;0.90;;;;;;;;;;5006715;28;20042;-56
2021/11/23 12:38:47;;;;;;;3.47;1.00;;;;;;;;;;4994332;28;20041;-55
2021/11/23 12:41:15;;;;;;;2.42;0.90;;;;;;;;;;4986902;28;20038;-56
2021/11/23 12:43:42;;;;;;;5.32;0.88;;;;;;;;;;4988752;28;20115;-56
2021/11/23 12:46:10;;;;;;;4.10;0.85;;;;;;;;;;5005784;28;20041;-53
2021/11/23 12:48:38;;;;;;;4.27;0.90;;;;;;;;;;5001083;28;20082;-57
2021/11/23 12:51:35;;;;;;;3.50;1.13;;;;;;;;;;5005983;28;20064;-58
2021/11/23 12:54:02;;;;;;;3.40;1.15;;;;;;;;;;4942191;28;20328;-55
2021/11/23 12:56:42;;;;;;;14.77;1.23;;;;;;;;;;4995227;28;20128;-57
2021/11/23 12:59:24;;;;;;;1.98;0.90;;;;;;;;;;5002145;28;20042;-57
2021/11/23 13:01:50;;;;;;;1.55;0.85;;;;;;;;;;5004301;28;20044;-56
2021/11/23 13:04:18;;;;;;;5.68;1.10;;;;;;;;;;4996113;28;20054;-57
2021/11/23 13:07:00;;;;;;;5.23;1.00;;;;;;;;;;5000701;28;20053;-54
2021/11/23 13:09:43;;;;;;;2.58;1.30;;;;;;;;;;4985785;28;20438;-54
2021/11/23 13:12:10;;;;;;;4.72;1.30;;;;;;;;;;5005293;28;20041;-60
2021/11/23 13:14:49;;;;;;;5.05;1.10;;;;;;;;;;4998069;28;20041;-54
2021/11/23 13:17:16;;;;;;;4.35;1.05;;;;;;;;;;4984732;28;20046;-56
2021/11/23 13:19:52;;;;;;;5.03;0.98;;;;;;;;;;4982192;28;20061;-57
2021/11/23 13:22:19;;;;;;;3.00;0.95;;;;;;;;;;4985166;28;20042;-56
2021/11/23 13:24:45;;;;;;;2.45;1.00;;;;;;;;;;5001429;28;20057;-54
2021/11/23 13:27:12;;;;;;;3.35;0.95;;;;;;;;;;5004098;28;20045;-56
2021/11/23 13:29:44;;;;;;;2.40;0.98;;;;;;;;;;5004397;28;20052;-56
2021/11/23 13:32:11;;;;;;;4.80;1.65;;;;;;;;;;4978516;28;20052;-56
2021/11/23 13:34:37;;;;;;;6.07;1.10;;;;;;;;;;5000861;28;20526;-57
2021/11/23 13:37:05;;;;;;;2.22;0.70;;;;;;;;;;4983086;28;20169;-56
2021/11/23 13:39:32;;;;;;;2.17;0.70;;;;;;;;;;5001927;28;20042;-56
2021/11/23 13:41:59;;;;;;;3.03;0.95;;;;;;;;;;5010838;28;20291;-57
2021/11/23 13:44:26;;;;;;;4.60;1.30;;;;;;;;;;5003759;28;20037;-58
2021/11/23 13:46:54;;;;;;;1.83;0.90;;;;;;;;;;5005955;28;20042;-55
2021/11/23 13:49:24;;;;;;;2.08;1.00;;;;;;;;;;5002526;28;20056;-57
2021/11/23 13:52:06;;;;;;;4.20;0.77;;;;;;;;;;4982256;28;20584;-57
2021/11/23 13:54:38;;;;;;;1.40;0.80;;;;;;;;;;4984475;28;20038;-57
2021/11/23 13:57:07;;;;;;;8.48;0.95;;;;;;;;;;4991562;28;20057;-56
2021/11/23 13:59:34;;;;;;;1.15;0.55;;;;;;;;;;5005890;28;20049;-56
2021/11/23 14:02:01;;;;;;;3.17;0.80;;;;;;;;;;4993459;28;20042;-57
2021/11/23 14:04:29;;;;;;;5.03;1.30;;;;;;;;;;4983500;28;20083;-57
2021/11/23 14:07:07;;;;;;;4.43;1.00;;;;;;;;;;5004075;28;20049;-56
2021/11/23 14:09:57;;;;;;;4.47;1.05;;;;;;;;;;5004753;28;20038;-55
2021/11/23 14:12:25;;;;;;;1.80;1.05;;;;;;;;;;5010124;28;20050;-56
2021/11/23 14:15:08;;;;;;;3.95;1.00;;;;;;;;;;4985752;28;20034;-58
2021/11/23 14:17:56;;;;;;;3.55;0.80;;;;;;;;;;5006847;28;20120;-57
2021/11/23 14:20:22;;;;;;;2.53;0.80;;;;;;;;;;5004246;28;20048;-55
2021/11/23 14:22:50;;;;;;;5.07;1.00;;;;;;;;;;5000336;28;20044;-57
2021/11/23 14:25:18;;;;;;;1.97;0.80;;;;;;;;;;5002790;28;20165;-55
2021/11/23 14:27:54;;;;;;;1.90;0.75;;;;;;;;;;4998567;28;20042;-57
2021/11/23 14:30:21;;;;;;;2.05;0.68;;;;;;;;;;5002518;28;20052;-56
2021/11/23 14:32:47;;;;;;;3.25;0.80;;;;;;;;;;5015707;28;20046;-58
2021/11/23 14:35:14;;;;;;;6.55;0.90;;;;;;;;;;4984987;28;20042;-54
2021/11/23 14:37:40;;;;;;;4.38;0.90;;;;;;;;;;4982049;28;20038;-57
2021/11/23 14:40:09;;;;;;;3.92;0.80;;;;;;;;;;4985204;28;20054;-57
2021/11/23 14:42:36;;;;;;;3.30;0.88;;;;;;;;;;4984180;28;20042;-54
2021/11/23 14:45:02;;;;;;;2.45;0.75;;;;;;;;;;5004461;28;20042;-57
2021/11/23 14:47:28;;;;;;;4.57;1.00;;;;;;;;;;4987999;28;20197;-57